Terminal Aerodrome Forecast
Issued by NWS

Home | Current Version | Previous Version | Graphics & Text | Print | Product List | Glossary On
Versions: 1 2 3 4 5 6 7 8 9 10 11 12 13 14
000
FTUS43 KMPX 280500
TAFRWF
TAF
KRWF 280527Z 2806/2906 27010KT P6SM BKN100
     FM281200 28018G25KT P6SM BKN025 OVC040
     FM282000 28020G27KT P6SM SCT025 OVC040
     FM290100 30015KT P6SM BKN050=

USA.gov is the U.S. government's official web portal to all federal, state and local government web resources and services.